Time;durP1;ratioP1;P1;durP2;ratioP2;P2;SDS_P1;SDS_P2;PMS_P1;PMS_P2;Temp;Humidity;BMP_temperature;BMP_pressure;BME280_temperature;BME280_humidity;BME280_pressure;Samples;Min_cycle;Max_cycle;Signal;HPM_P1;HPM_P2
2021/08/14 00:00:45;;;;;;;;;;;;;;;20.80;65.62;99618.25;5064630;28;19938;-81
2021/08/14 00:03:10;;;;;;;;;;;;;;;20.77;61.71;99617.59;5057090;28;19919;-81
2021/08/14 00:05:35;;;;;;;;;;;;;;;20.60;63.04;99621.31;5067607;28;20276;-81
2021/08/14 00:08:01;;;;;;;;;;;;;;;20.47;64.68;99614.19;5069243;28;19923;-81
2021/08/14 00:10:26;;;;;;;;;;;;;;;20.42;64.42;99613.66;5066505;28;20420;-81
2021/08/14 00:12:51;;;;;;;;;;;;;;;20.60;62.71;99614.28;5049872;28;19924;-81
2021/08/14 00:15:17;;;;;;;;;;;;;;;20.37;65.66;99602.63;5068492;28;19923;-81
2021/08/14 00:17:42;;;;;;;;;;;;;;;20.15;65.67;99607.53;5067237;28;20023;-81
2021/08/14 00:20:08;;;;;;;;;;;;;;;20.39;65.61;99608.63;5071683;28;19923;-82
2021/08/14 00:22:33;;;;;;;;;;;;;;;20.56;65.97;99599.72;5068288;28;19916;-81
2021/08/14 00:24:58;;;;;;;;;;;;;;;20.58;65.41;99602.25;5051279;28;20321;-81
2021/08/14 00:27:24;;;;;;;;;;;;;;;20.72;67.01;99596.97;5069931;28;20421;-81
2021/08/14 00:29:49;;;;;;;;;;;;;;;20.57;61.05;99596.19;5069166;28;20392;-81
2021/08/14 00:32:14;;;;;;;;;;;;;;;20.59;64.40;99599.50;5050170;28;20406;-81
2021/08/14 00:34:39;;;;;;;;;;;;;;;20.51;64.42;99596.53;5067435;28;19962;-81
2021/08/14 00:37:05;;;;;;;;;;;;;;;20.32;64.20;99602.09;5068810;28;20106;-81
2021/08/14 00:39:30;;;;;;;;;;;;;;;20.19;64.83;99601.16;5052051;28;19959;-82
2021/08/14 00:41:56;;;;;;;;;;;;;;;20.36;64.81;99598.31;5050586;28;20025;-82
2021/08/14 00:44:21;;;;;;;;;;;;;;;20.42;67.53;99595.34;5067777;28;20337;-82
2021/08/14 00:46:46;;;;;;;;;;;;;;;20.40;64.27;99589.34;5066201;28;19919;-81
2021/08/14 00:49:12;;;;;;;;;;;;;;;20.40;67.04;99591.97;5052984;28;19920;-81
2021/08/14 00:51:37;;;;;;;;;;;;;;;20.31;66.52;99589.94;5048489;28;19920;-82
2021/08/14 00:54:03;;;;;;;;;;;;;;;20.00;64.96;99584.00;5068502;28;20493;-81
2021/08/14 00:56:28;;;;;;;;;;;;;;;20.06;65.09;99590.63;5052378;28;19974;-81
2021/08/14 00:58:53;;;;;;;;;;;;;;;20.01;65.08;99590.91;5044442;28;19921;-81
2021/08/14 01:01:25;;;;;;;;;;;;;;;20.14;67.45;99582.28;5060033;28;19943;-82
2021/08/14 01:03:51;;;;;;;;;;;;;;;20.13;65.39;99586.69;5058864;28;19924;-81
2021/08/14 01:06:17;;;;;;;;;;;;;;;20.00;65.93;99584.00;5070660;28;20003;-82
2021/08/14 01:08:42;;;;;;;;;;;;;;;19.92;66.11;99583.63;5070074;28;20010;-81
2021/08/14 01:11:09;;;;;;;;;;;;;;;19.70;67.25;99578.03;5066547;28;19947;-81
2021/08/14 01:13:34;;;;;;;;;;;;;;;19.97;66.62;99578.94;5050637;28;20011;-81
2021/08/14 01:15:59;;;;;;;;;;;;;;;19.68;66.38;99572.00;5065784;28;20057;-81
2021/08/14 01:18:25;;;;;;;;;;;;;;;19.74;69.97;99572.53;5068762;28;19930;-82
2021/08/14 01:20:51;;;;;;;;;;;;;;;19.34;68.09;99572.28;5049427;28;20355;-81
2021/08/14 01:23:17;;;;;;;;;;;;;;;19.33;70.15;99560.13;5068788;28;19916;-82
2021/08/14 01:25:42;;;;;;;;;;;;;;;19.23;69.75;99564.22;5069006;28;19927;-81
2021/08/14 01:28:08;;;;;;;;;;;;;;;19.26;70.55;99563.22;5067212;28;19920;-82
2021/08/14 01:30:33;;;;;;;;;;;;;;;19.53;66.09;99561.56;5069865;28;19927;-82
2021/08/14 01:32:59;;;;;;;;;;;;;;;19.74;67.52;99550.78;5050949;28;20390;-82
2021/08/14 01:35:24;;;;;;;;;;;;;;;19.82;68.86;99553.78;5066854;28;19986;-82
2021/08/14 01:37:49;;;;;;;;;;;;;;;19.18;68.76;99550.59;5067732;28;20018;-81
2021/08/14 01:40:14;;;;;;;;;;;;;;;19.15;69.30;99550.78;5048110;28;19921;-81
2021/08/14 01:42:40;;;;;;;;;;;;;;;19.20;72.03;99549.59;5050584;28;20021;-82
2021/08/14 01:45:06;;;;;;;;;;;;;;;19.40;70.06;99544.94;5068629;28;19916;-82
2021/08/14 01:47:31;;;;;;;;;;;;;;;19.34;67.00;99546.16;5069013;28;20295;-81
2021/08/14 01:49:56;;;;;;;;;;;;;;;19.46;68.90;99549.81;5064792;28;19955;-82
2021/08/14 01:52:21;;;;;;;;;;;;;;;19.02;71.53;99548.91;5067791;28;19927;-82
2021/08/14 01:54:47;;;;;;;;;;;;;;;19.19;69.48;99550.50;5067346;28;19920;-82
2021/08/14 01:57:12;;;;;;;;;;;;;;;18.64;75.97;99551.06;5065627;28;19916;-82
2021/08/14 01:59:39;;;;;;;;;;;;;;;18.64;76.06;99548.44;5048970;28;19927;-81
2021/08/14 02:02:04;;;;;;;;;;;;;;;18.99;74.55;99548.22;5066738;28;19920;-82
2021/08/14 02:04:30;;;;;;;;;;;;;;;18.99;71.63;99548.22;5049954;28;19928;-82
2021/08/14 02:06:55;;;;;;;;;;;;;;;18.60;74.18;99539.09;5068883;28;20379;-82
2021/08/14 02:09:20;;;;;;;;;;;;;;;18.68;73.32;99541.25;5068454;28;19916;-82
2021/08/14 02:11:46;;;;;;;;;;;;;;;18.66;75.49;99533.53;5073269;28;19924;-82
2021/08/14 02:14:11;;;;;;;;;;;;;;;18.91;72.42;99540.00;5071918;28;19916;-82
2021/08/14 02:16:37;;;;;;;;;;;;;;;18.84;73.15;99536.03;5069440;28;20898;-81
2021/08/14 02:19:02;;;;;;;;;;;;;;;18.92;76.75;99537.28;5071313;28;19927;-81
2021/08/14 02:21:27;;;;;;;;;;;;;;;18.40;76.55;99537.59;5068205;28;20016;-81
2021/08/14 02:23:53;;;;;;;;;;;;;;;18.83;72.81;99527.38;5053670;28;20878;-81
2021/08/14 02:26:18;;;;;;;;;;;;;;;18.53;77.65;99532.56;5067365;28;19913;-81
2021/08/14 02:28:44;;;;;;;;;;;;;;;18.89;78.47;99539.25;5053411;28;19916;-81
2021/08/14 02:31:09;;;;;;;;;;;;;;;18.88;77.22;99538.38;5068240;28;20468;-81
2021/08/14 02:33:34;;;;;;;;;;;;;;;18.80;77.60;99535.41;5050972;28;19979;-81
2021/08/14 02:36:03;;;;;;;;;;;;;;;18.71;82.82;99534.13;5052401;28;19923;-81
2021/08/14 02:38:28;;;;;;;;;;;;;;;18.92;73.45;99533.84;5066224;28;19943;-82
2021/08/14 02:40:54;;;;;;;;;;;;;;;19.08;71.07;99528.56;5052829;28;19916;-81
2021/08/14 02:43:19;;;;;;;;;;;;;;;19.01;76.37;99539.38;5049749;28;19969;-81
2021/08/14 02:45:45;;;;;;;;;;;;;;;19.40;73.92;99529.28;5068241;28;20410;-82
2021/08/14 02:48:10;;;;;;;;;;;;;;;19.34;72.08;99530.50;5051809;28;19920;-81
2021/08/14 02:50:36;;;;;;;;;;;;;;;19.29;73.64;99531.69;5066137;28;20005;-81
2021/08/14 02:53:01;;;;;;;;;;;;;;;19.32;72.82;99532.34;5065404;28;19929;-81
2021/08/14 02:55:27;;;;;;;;;;;;;;;19.25;72.75;99535.41;5066744;28;19991;-81
2021/08/14 02:57:52;;;;;;;;;;;;;;;19.22;74.48;99532.03;5069007;28;19924;-81
2021/08/14 03:00:17;;;;;;;;;;;;;;;19.33;75.69;99525.34;5067382;28;19931;-81
2021/08/14 03:02:43;;;;;;;;;;;;;;;19.37;74.50;99524.25;5065754;28;19927;-81
2021/08/14 03:05:08;;;;;;;;;;;;;;;19.09;70.40;99531.09;5061822;28;20302;-81
2021/08/14 03:07:34;;;;;;;;;;;;;;;19.23;72.64;99523.28;5068002;28;20542;-81
2021/08/14 03:09:59;;;;;;;;;;;;;;;19.33;73.29;99517.50;5066448;28;19955;-81
2021/08/14 03:12:25;;;;;;;;;;;;;;;19.07;69.16;99522.53;5069114;28;19928;-81
2021/08/14 03:14:51;;;;;;;;;;;;;;;19.04;68.43;99520.06;5068259;28;20058;-81
2021/08/14 03:17:16;;;;;;;;;;;;;;;18.75;78.62;99525.19;5048535;28;19920;-82
2021/08/14 03:19:42;;;;;;;;;;;;;;;19.03;76.12;99521.00;5066933;28;19956;-81
2021/08/14 03:22:07;;;;;;;;;;;;;;;19.02;74.95;99519.31;5067186;28;19920;-82
2021/08/14 03:24:32;;;;;;;;;;;;;;;18.99;71.87;99516.91;5067126;28;19921;-81
2021/08/14 03:26:58;;;;;;;;;;;;;;;19.21;75.44;99514.69;5057468;28;19920;-81
2021/08/14 03:29:23;;;;;;;;;;;;;;;19.21;73.83;99514.69;5049306;28;19931;-81
2021/08/14 03:31:48;;;;;;;;;;;;;;;19.09;71.14;99515.44;5068966;28;20431;-81
2021/08/14 03:34:13;;;;;;;;;;;;;;;19.05;75.53;99508.72;5048651;28;19920;-81
2021/08/14 03:36:39;;;;;;;;;;;;;;;19.11;74.47;99505.75;5068532;28;19970;-81
2021/08/14 03:39:04;;;;;;;;;;;;;;;19.12;74.21;99514.41;5065111;28;19923;-81
2021/08/14 03:41:29;;;;;;;;;;;;;;;19.20;76.49;99513.03;5051216;28;19924;-81
2021/08/14 03:43:55;;;;;;;;;;;;;;;18.93;73.75;99514.63;5052148;28;20089;-81
2021/08/14 03:46:20;;;;;;;;;;;;;;;19.03;71.36;99521.00;5072251;28;19916;-81
2021/08/14 03:48:45;;;;;;;;;;;;;;;19.08;73.07;99524.19;5068662;28;19964;-81
2021/08/14 03:51:10;;;;;;;;;;;;;;;18.84;74.58;99509.94;5070420;28;19928;-82
2021/08/14 03:53:36;;;;;;;;;;;;;;;18.75;77.39;99525.19;5072140;28;19931;-81
2021/08/14 03:56:01;;;;;;;;;;;;;;;18.79;75.28;99521.53;5068881;28;20341;-81
2021/08/14 03:58:30;;;;;;;;;;;;;;;19.04;74.77;99520.06;5069054;28;19919;-82
2021/08/14 04:00:55;;;;;;;;;;;;;;;18.95;70.02;99518.00;5054693;28;19966;-81
2021/08/14 04:03:21;;;;;;;;;;;;;;;19.00;71.93;99526.44;5071356;28;19920;-81
2021/08/14 04:05:46;;;;;;;;;;;;;;;18.89;74.33;99524.44;5069787;28;19920;-81
2021/08/14 04:08:11;;;;;;;;;;;;;;;18.58;77.90;99526.13;5053195;28;20410;-81
2021/08/14 04:10:38;;;;;;;;;;;;;;;18.41;77.16;99520.22;5065064;28;19916;-81
2021/08/14 04:13:04;;;;;;;;;;;;;;;18.30;78.19;99526.84;5054724;28;19931;-82
2021/08/14 04:15:31;;;;;;;;;;;;;;;18.04;81.36;99520.47;5053417;28;20403;-81
2021/08/14 04:17:56;;;;;;;;;;;;;;;17.98;80.25;99516.44;5072379;28;19931;-82
2021/08/14 04:20:21;;;;;;;;;;;;;;;18.15;83.17;99517.25;5067510;28;19920;-81
2021/08/14 04:22:47;;;;;;;;;;;;;;;18.52;78.59;99515.22;5054297;28;19920;-81
2021/08/14 04:25:12;;;;;;;;;;;;;;;18.51;79.30;99510.94;5069256;28;20391;-81
2021/08/14 04:27:37;;;;;;;;;;;;;;;18.73;77.96;99516.63;5071298;28;19920;-81
2021/08/14 04:30:04;;;;;;;;;;;;;;;18.11;84.32;99515.75;5070334;28;19916;-82
2021/08/14 04:32:33;;;;;;;;;;;;;;;18.64;78.16;99519.75;5057087;28;20708;-83
2021/08/14 04:35:00;;;;;;;;;;;;;;;18.47;73.83;99512.03;5073912;28;19921;-83
2021/08/14 04:37:25;;;;;;;;;;;;;;;18.21;80.44;99516.94;5057478;28;19925;-82
2021/08/14 04:39:51;;;;;;;;;;;;;;;18.35;79.05;99514.41;5070328;28;20284;-82
2021/08/14 04:42:16;;;;;;;;;;;;;;;18.48;84.01;99513.72;5072725;28;19927;-83
2021/08/14 04:44:41;;;;;;;;;;;;;;;18.90;81.37;99517.44;5054396;28;19953;-81
2021/08/14 04:47:08;;;;;;;;;;;;;;;19.13;75.62;99516.91;5052149;28;19943;-81
2021/08/14 04:49:33;;;;;;;;;;;;;;;18.69;77.08;99511.66;5051801;28;19962;-81
2021/08/14 04:51:59;;;;;;;;;;;;;;;19.02;74.09;99508.88;5050509;28;20009;-82
2021/08/14 04:54:24;;;;;;;;;;;;;;;19.01;76.97;99512.44;5051719;28;20291;-81
2021/08/14 04:56:49;;;;;;;;;;;;;;;18.99;78.29;99514.28;5067862;28;19921;-82
2021/08/14 04:59:15;;;;;;;;;;;;;;;18.89;74.82;99513.16;5051042;28;19920;-81
2021/08/14 05:01:40;;;;;;;;;;;;;;;19.13;74.76;99506.47;5042984;28;19921;-81
2021/08/14 05:04:05;;;;;;;;;;;;;;;18.92;72.00;99515.56;5052469;28;19923;-81
2021/08/14 05:06:31;;;;;;;;;;;;;;;19.37;77.95;99514.63;5072702;28;19968;-81
2021/08/14 05:08:56;;;;;;;;;;;;;;;19.64;80.65;99522.56;5071950;28;20003;-81
2021/08/14 05:11:21;;;;;;;;;;;;;;;19.59;76.35;99519.41;5072256;28;19924;-81
2021/08/14 05:13:47;;;;;;;;;;;;;;;19.51;73.62;99516.41;5070418;28;19928;-81
2021/08/14 05:16:12;;;;;;;;;;;;;;;19.62;73.70;99519.19;5052534;28;19920;-81
2021/08/14 05:18:37;;;;;;;;;;;;;;;19.75;76.49;99508.03;5052727;28;19928;-81
2021/08/14 05:21:03;;;;;;;;;;;;;;;19.74;70.94;99522.03;5051455;28;19916;-81
2021/08/14 05:23:28;;;;;;;;;;;;;;;19.58;69.65;99517.72;5050024;28;20023;-81
2021/08/14 05:25:53;;;;;;;;;;;;;;;19.52;69.22;99506.78;5067086;28;20341;-81
2021/08/14 05:28:21;;;;;;;;;;;;;;;19.84;73.78;99513.53;5068059;28;19935;-81
2021/08/14 05:30:46;;;;;;;;;;;;;;;19.89;78.46;99504.53;5065661;28;19920;-81
2021/08/14 05:33:11;;;;;;;;;;;;;;;19.44;73.78;99505.47;5069876;28;19931;-81
2021/08/14 05:35:37;;;;;;;;;;;;;;;19.87;75.19;99502.06;5069419;28;19947;-81
2021/08/14 05:38:02;;;;;;;;;;;;;;;19.76;71.36;99509.72;5051242;28;20020;-81
2021/08/14 05:40:28;;;;;;;;;;;;;;;19.73;71.66;99505.53;5064685;28;19927;-80
2021/08/14 05:42:53;;;;;;;;;;;;;;;20.00;71.76;99508.19;5068593;28;20372;-81
2021/08/14 05:45:18;;;;;;;;;;;;;;;19.95;76.74;99505.00;5066608;28;19920;-80
2021/08/14 05:47:44;;;;;;;;;;;;;;;20.19;73.85;99509.63;5050971;28;19920;-81
2021/08/14 05:50:09;;;;;;;;;;;;;;;20.34;72.43;99508.63;5055345;28;19920;-80
2021/08/14 05:52:34;;;;;;;;;;;;;;;20.02;66.02;99514.13;5062687;28;19920;-81
2021/08/14 05:55:00;;;;;;;;;;;;;;;20.38;73.31;99512.75;5063528;28;19923;-81
2021/08/14 05:57:25;;;;;;;;;;;;;;;20.52;66.39;99516.25;5064651;28;19960;-82
2021/08/14 05:59:50;;;;;;;;;;;;;;;20.26;71.07;99521.38;5049592;28;19998;-81
2021/08/14 06:02:16;;;;;;;;;;;;;;;20.35;67.42;99523.41;5067533;28;19964;-83
2021/08/14 06:04:41;;;;;;;;;;;;;;;20.18;71.48;99521.03;5059748;28;20023;-81
2021/08/14 06:07:06;;;;;;;;;;;;;;;20.35;78.35;99518.19;5069608;28;19923;-82
2021/08/14 06:09:32;;;;;;;;;;;;;;;20.62;73.07;99520.00;5067141;28;20407;-81
2021/08/14 06:11:57;;;;;;;;;;;;;;;20.71;69.96;99519.38;5042174;28;19924;-82
2021/08/14 06:14:22;;;;;;;;;;;;;;;20.75;71.94;99518.22;5053642;28;19920;-82
2021/08/14 06:16:48;;;;;;;;;;;;;;;21.04;76.97;99511.06;5064991;28;19917;-82
2021/08/14 06:19:13;;;;;;;;;;;;;;;21.13;77.06;99517.47;5053640;28;19923;-82
2021/08/14 06:21:38;;;;;;;;;;;;;;;21.22;73.92;99508.97;5070615;28;20022;-81
2021/08/14 06:24:03;;;;;;;;;;;;;;;21.27;71.69;99517.34;5069273;28;19920;-83
2021/08/14 06:26:29;;;;;;;;;;;;;;;21.20;68.05;99510.84;5069794;28;20011;-82
2021/08/14 06:28:55;;;;;;;;;;;;;;;21.92;74.74;99508.53;5068438;28;19984;-82
2021/08/14 06:31:20;;;;;;;;;;;;;;;21.79;73.49;99518.19;5068595;28;19916;-81
2021/08/14 06:33:46;;;;;;;;;;;;;;;21.10;80.22;99515.88;5068787;28;19931;-82
2021/08/14 06:36:12;;;;;;;;;;;;;;;21.02;81.22;99517.34;5070643;28;19959;-81
2021/08/14 06:38:37;;;;;;;;;;;;;;;21.13;85.47;99519.25;5057841;28;19921;-81
2021/08/14 06:41:03;;;;;;;;;;;;;;;21.47;82.16;99512.56;5067983;28;19931;-81
2021/08/14 06:43:28;;;;;;;;;;;;;;;21.13;81.60;99509.59;5069300;28;19912;-81
2021/08/14 06:45:54;;;;;;;;;;;;;;;21.14;85.93;99510.44;5066874;28;19924;-81
2021/08/14 06:48:19;;;;;;;;;;;;;;;21.66;83.36;99512.97;5066012;28;19973;-79
2021/08/14 06:50:44;;;;;;;;;;;;;;;21.89;83.10;99502.63;5065610;28;19924;-78
2021/08/14 06:53:09;;;;;;;;;;;;;;;21.57;85.82;99513.59;5070916;28;19924;-79
2021/08/14 06:55:35;;;;;;;;;;;;;;;21.51;83.91;99508.81;5068663;28;19924;-78
2021/08/14 06:58:00;;;;;;;;;;;;;;;21.87;81.24;99509.78;5063117;28;20892;-78
2021/08/14 07:00:25;;;;;;;;;;;;;;;22.37;75.14;99512.38;5069517;28;19917;-78
2021/08/14 07:02:51;;;;;;;;;;;;;;;22.32;78.96;99516.16;5068901;28;19954;-78
2021/08/14 07:05:17;;;;;;;;;;;;;;;22.50;79.02;99523.66;5066777;28;20402;-79
2021/08/14 07:07:42;;;;;;;;;;;;;;;22.69;75.90;99528.38;5068544;28;19916;-79
2021/08/14 07:10:08;;;;;;;;;;;;;;;22.39;78.77;99531.47;5058300;28;19920;-78
2021/08/14 07:12:33;;;;;;;;;;;;;;;23.20;74.27;99528.09;5071605;28;19935;-78
2021/08/14 07:14:59;;;;;;;;;;;;;;;23.49;71.21;99523.25;5066863;28;19920;-78
2021/08/14 07:17:24;;;;;;;;;;;;;;;23.44;69.08;99525.38;5071596;28;19916;-78
2021/08/14 07:19:50;;;;;;;;;;;;;;;23.64;67.54;99530.91;5067749;28;19971;-79
2021/08/14 07:22:15;;;;;;;;;;;;;;;23.61;70.16;99521.47;5072906;28;19994;-78
2021/08/14 07:24:40;;;;;;;;;;;;;;;23.53;73.87;99526.47;5070320;28;20015;-78
2021/08/14 07:27:06;;;;;;;;;;;;;;;23.44;73.29;99524.53;5071225;28;20645;-78
2021/08/14 07:29:31;;;;;;;;;;;;;;;23.38;69.17;99520.63;5059818;28;19921;-79
2021/08/14 07:31:56;;;;;;;;;;;;;;;24.27;62.85;99518.91;5073036;28;19992;-78
2021/08/14 07:34:21;;;;;;;;;;;;;;;24.28;63.57;99525.00;5047209;28;19941;-78
2021/08/14 07:36:47;;;;;;;;;;;;;;;24.39;64.61;99517.06;5052334;28;19935;-78
2021/08/14 07:39:12;;;;;;;;;;;;;;;24.36;64.55;99506.78;5071617;28;19917;-78
2021/08/14 07:41:37;;;;;;;;;;;;;;;24.68;59.15;99498.06;5070825;28;19916;-78
2021/08/14 07:44:03;;;;;;;;;;;;;;;23.84;62.57;99497.81;5068169;28;19923;-78
2021/08/14 07:46:28;;;;;;;;;;;;;;;25.24;59.72;99495.13;5070750;28;19916;-78
2021/08/14 07:48:53;;;;;;;;;;;;;;;25.23;62.01;99496.09;5072805;28;19916;-78
2021/08/14 07:51:19;;;;;;;;;;;;;;;25.16;58.04;99492.28;5071604;28;19959;-78
2021/08/14 07:53:44;;;;;;;;;;;;;;;25.02;59.76;99494.28;5070592;28;19947;-78
2021/08/14 07:56:09;;;;;;;;;;;;;;;25.44;59.18;99488.97;5069857;28;19916;-78
2021/08/14 07:58:35;;;;;;;;;;;;;;;24.48;60.74;99497.09;5068663;28;19927;-78
2021/08/14 08:01:00;;;;;;;;;;;;;;;24.71;61.21;99492.53;5072070;28;19919;-78
2021/08/14 08:03:26;;;;;;;;;;;;;;;25.42;60.94;99501.47;5072555;28;19976;-78
2021/08/14 08:05:51;;;;;;;;;;;;;;;25.42;60.88;99493.53;5070660;28;20356;-78
2021/08/14 08:08:17;;;;;;;;;;;;;;;26.09;59.71;99488.63;5068519;28;19920;-78
2021/08/14 08:10:42;;;;;;;;;;;;;;;24.82;65.19;99501.22;5053073;28;19920;-78
2021/08/14 08:13:07;;;;;;;;;;;;;;;24.06;72.00;99500.38;5073377;28;19924;-78
2021/08/14 08:15:32;;;;;;;;;;;;;;;24.79;65.15;99490.09;5074386;28;19916;-80
2021/08/14 08:17:58;;;;;;;;;;;;;;;25.11;64.90;99486.56;5065738;28;19919;-81
2021/08/14 08:20:23;;;;;;;;;;;;;;;24.93;64.12;99479.25;5052271;28;19934;-81
2021/08/14 08:22:49;;;;;;;;;;;;;;;25.38;62.83;99478.94;5066265;28;19925;-80
2021/08/14 08:25:15;;;;;;;;;;;;;;;25.85;57.04;99484.53;5050354;28;19924;-80
2021/08/14 08:27:41;;;;;;;;;;;;;;;27.06;56.44;99478.06;5065035;28;20323;-80
2021/08/14 08:30:08;;;;;;;;;;;;;;;27.61;52.85;99473.88;5073187;28;19935;-80
2021/08/14 08:32:33;;;;;;;;;;;;;;;27.74;51.15;99466.41;5069997;28;19960;-81
2021/08/14 08:34:59;;;;;;;;;;;;;;;26.49;52.55;99475.31;5052769;28;19979;-80
2021/08/14 08:37:24;;;;;;;;;;;;;;;26.79;52.29;99483.28;5049401;28;19917;-81
2021/08/14 08:39:49;;;;;;;;;;;;;;;27.34;50.63;99475.50;5075943;28;19908;-80
2021/08/14 08:42:15;;;;;;;;;;;;;;;27.62;50.24;99472.88;5075909;28;21098;-81
2021/08/14 08:44:40;;;;;;;;;;;;;;;27.86;49.43;99465.25;5073053;28;20337;-80
2021/08/14 08:47:07;;;;;;;;;;;;;;;28.05;49.80;99474.06;5063149;28;19917;-80
2021/08/14 08:49:33;;;;;;;;;;;;;;;27.24;51.26;99474.72;5053871;28;19998;-80
2021/08/14 08:51:58;;;;;;;;;;;;;;;26.06;55.01;99479.19;5068967;28;20332;-81
2021/08/14 08:54:24;;;;;;;;;;;;;;;25.95;56.32;99470.56;5054481;28;19916;-80
2021/08/14 08:56:49;;;;;;;;;;;;;;;27.33;55.88;99469.38;5059193;28;19916;-81
2021/08/14 08:59:14;;;;;;;;;;;;;;;28.10;53.10;99469.97;5074771;28;19924;-80
2021/08/14 09:01:40;;;;;;;;;;;;;;;28.57;49.58;99474.22;5075700;28;19977;-82
2021/08/14 09:04:24;;;;;;;;;;;;;;;26.75;49.91;99479.22;5053425;28;19925;-82
2021/08/14 09:06:50;;;;;;;;;;;;;;;28.74;51.66;99476.03;5072561;28;19924;-83
2021/08/14 09:09:15;;;;;;;;;;;;;;;25.51;56.38;99477.91;5055133;28;19925;-82
2021/08/14 09:11:48;;;;;;;;;;;;;;;28.56;52.98;99472.59;5072210;28;19949;-82
2021/08/14 09:14:13;;;;;;;;;;;;;;;28.51;49.79;99458.94;5080137;28;19943;-82
2021/08/14 09:16:38;;;;;;;;;;;;;;;26.85;52.08;99477.44;5072773;28;20713;-82
2021/08/14 09:19:04;;;;;;;;;;;;;;;28.75;48.62;99459.13;5073030;28;20019;-81
2021/08/14 09:21:34;;;;;;;;;;;;;;;29.61;46.21;99454.84;5054288;28;19927;-81
2021/08/14 09:24:04;;;;;;;;;;;;;;;29.57;44.42;99448.19;5071800;28;19924;-81
2021/08/14 09:26:30;;;;;;;;;;;;;;;29.59;43.06;99454.16;5070131;28;19931;-81
2021/08/14 09:29:02;;;;;;;;;;;;;;;29.42;41.69;99447.94;5071814;28;19931;-81
2021/08/14 09:31:28;;;;;;;;;;;;;;;26.18;53.29;99456.13;5074718;28;19916;-82
2021/08/14 09:33:53;;;;;;;;;;;;;;;28.21;49.71;99447.72;5054497;28;19916;-81
2021/08/14 09:36:18;;;;;;;;;;;;;;;29.66;50.61;99451.69;5069861;28;19927;-81
2021/08/14 09:38:45;;;;;;;;;;;;;;;26.60;53.67;99450.63;5066253;28;20253;-82
2021/08/14 09:41:20;;;;;;;;;;;;;;;27.66;48.23;99450.44;5069853;28;19920;-79
2021/08/14 09:43:46;;;;;;;;;;;;;;;27.48;50.29;99450.38;5075737;28;20027;-81
2021/08/14 09:46:12;;;;;;;;;;;;;;;28.84;46.72;99445.94;5053671;28;20039;-81
2021/08/14 09:48:37;;;;;;;;;;;;;;;29.85;47.47;99443.47;5065427;28;20467;-82
2021/08/14 09:51:03;;;;;;;;;;;;;;;26.22;52.47;99441.69;5055603;28;19920;-81
2021/08/14 09:53:29;;;;;;;;;;;;;;;26.25;53.61;99433.50;5073971;28;19916;-81
2021/08/14 09:56:11;;;;;;;;;;;;;;;26.13;52.92;99441.69;5072023;28;19924;-81
2021/08/14 09:58:37;;;;;;;;;;;;;;;27.35;49.74;99434.00;5070981;28;20622;-81
2021/08/14 10:01:03;;;;;;;;;;;;;;;29.22;45.80;99425.28;5072758;28;19990;-81
2021/08/14 10:03:29;;;;;;;;;;;;;;;30.08;45.57;99429.56;5076804;28;20376;-82
2021/08/14 10:05:54;;;;;;;;;;;;;;;31.15;40.16;99425.84;5071882;28;19970;-81
2021/08/14 10:08:21;;;;;;;;;;;;;;;29.07;46.92;99415.25;5075822;28;20458;-81
2021/08/14 10:10:47;;;;;;;;;;;;;;;30.37;51.56;99421.97;5073708;28;19920;-81
2021/08/14 10:13:12;;;;;;;;;;;;;;;30.49;41.17;99425.13;5077845;28;20287;-81
2021/08/14 10:15:37;;;;;;;;;;;;;;;31.96;44.11;99413.22;5075049;28;19928;-82
2021/08/14 10:18:03;;;;;;;;;;;;;;;31.92;37.46;99408.38;5058551;28;20032;-82
2021/08/14 10:20:28;;;;;;;;;;;;;;;32.57;42.63;99404.41;5072412;28;19924;-82
2021/08/14 10:22:54;;;;;;;;;;;;;;;31.46;39.28;99409.16;5072524;28;19916;-80
2021/08/14 10:25:20;;;;;;;;;;;;;;;31.68;39.75;99407.50;5051312;28;19932;-82
2021/08/14 10:27:55;;;;;;;;;;;;;;;30.58;37.18;99413.47;5072229;28;19923;-79
2021/08/14 10:30:36;;;;;;;;;;;;;;;31.13;38.44;99409.22;5071436;28;20407;-82
2021/08/14 10:33:01;;;;;;;;;;;;;;;28.67;44.15;99408.75;5081925;28;19955;-79
2021/08/14 10:35:27;;;;;;;;;;;;;;;31.00;40.24;99408.97;5068401;28;19942;-81
2021/08/14 10:37:52;;;;;;;;;;;;;;;30.06;39.59;99415.63;5080406;28;20003;-80
2021/08/14 10:40:19;;;;;;;;;;;;;;;29.87;44.80;99409.63;5078275;28;19920;-79
2021/08/14 10:42:53;;;;;;;;;;;;;;;32.01;37.78;99410.84;5079652;28;20845;-79
2021/08/14 10:45:37;;;;;;;;;;;;;;;31.06;36.07;99405.59;5075416;28;19924;-79
2021/08/14 10:48:05;;;;;;;;;;;;;;;31.88;49.15;99407.91;5077296;28;20015;-82
2021/08/14 10:50:31;;;;;;;;;;;;;;;29.23;36.43;99406.56;5075329;28;20261;-82
2021/08/14 10:53:15;;;;;;;;;;;;;;;28.98;39.90;99392.34;5072604;28;19931;-81
2021/08/14 10:55:48;;;;;;;;;;;;;;;30.42;37.89;99397.56;5073593;28;19912;-82
2021/08/14 10:58:19;;;;;;;;;;;;;;;32.56;35.53;99386.75;5059523;28;19916;-81
2021/08/14 11:00:45;;;;;;;;;;;;;;;31.21;38.87;99382.59;5077553;28;20002;-82
2021/08/14 11:03:11;;;;;;;;;;;;;;;30.94;33.45;99385.72;5062816;28;19988;-82
2021/08/14 11:05:37;;;;;;;;;;;;;;;32.83;35.57;99383.47;5073519;28;19926;-81
2021/08/14 11:08:21;;;;;;;;;;;;;;;32.63;36.71;99391.16;5073237;28;19916;-81
2021/08/14 11:10:47;;;;;;;;;;;;;;;32.72;33.54;99381.25;5059510;28;19952;-79
2021/08/14 11:13:30;;;;;;;;;;;;;;;31.52;34.18;99384.50;5075109;28;19997;-79
2021/08/14 11:15:56;;;;;;;;;;;;;;;31.79;35.93;99379.66;5078773;28;19924;-79
2021/08/14 11:18:40;;;;;;;;;;;;;;;32.03;37.27;99387.50;5061930;28;19999;-80
2021/08/14 11:21:06;;;;;;;;;;;;;;;31.72;33.33;99378.72;5077143;28;19931;-81
2021/08/14 11:23:32;;;;;;;;;;;;;;;30.10;33.67;99388.56;5073388;28;19963;-82
2021/08/14 11:25:57;;;;;;;;;;;;;;;31.36;40.81;99380.06;5061583;28;20029;-79
2021/08/14 11:28:25;;;;;;;;;;;;;;;32.42;32.02;99373.19;5077620;28;19927;-80
2021/08/14 11:31:01;;;;;;;;;;;;;;;32.05;36.93;99377.50;5076353;28;19946;-83
2021/08/14 11:33:26;;;;;;;;;;;;;;;33.20;36.92;99378.22;5068895;28;19972;-81
2021/08/14 11:36:02;;;;;;;;;;;;;;;31.03;32.78;99379.34;5052588;28;19959;-79
2021/08/14 11:38:32;;;;;;;;;;;;;;;33.32;35.15;99377.56;5073555;28;19995;-79
2021/08/14 11:40:58;;;;;;;;;;;;;;;31.44;32.27;99368.56;5055998;28;19948;-82
2021/08/14 11:43:24;;;;;;;;;;;;;;;29.58;33.46;99375.50;5073999;28;20431;-81
2021/08/14 11:45:55;;;;;;;;;;;;;;;28.61;36.20;99372.25;5076023;28;20001;-82
2021/08/14 11:48:21;;;;;;;;;;;;;;;31.62;35.70;99369.13;5075368;28;20835;-81
2021/08/14 11:50:48;;;;;;;;;;;;;;;33.69;34.93;99375.75;5059393;28;19916;-82
2021/08/14 11:53:23;;;;;;;;;;;;;;;34.08;30.93;99363.78;5076604;28;21003;-81
2021/08/14 11:56:03;;;;;;;;;;;;;;;32.64;37.21;99373.31;5054377;28;20435;-81
2021/08/14 11:58:29;;;;;;;;;;;;;;;33.77;28.80;99371.31;5058832;28;19942;-82
2021/08/14 12:00:54;;;;;;;;;;;;;;;33.06;30.85;99369.22;5071866;28;19916;-79
2021/08/14 12:03:19;;;;;;;;;;;;;;;34.27;37.04;99361.50;5071503;28;19920;-81
2021/08/14 12:05:47;;;;;;;;;;;;;;;32.20;32.50;99361.56;5067808;28;19923;-79
2021/08/14 12:08:31;;;;;;;;;;;;;;;32.20;31.77;99355.41;5075705;28;20585;-80
2021/08/14 12:10:57;;;;;;;;;;;;;;;31.05;32.11;99356.06;5073439;28;20216;-81
2021/08/14 12:13:24;;;;;;;;;;;;;;;33.26;35.26;99351.63;5067236;28;19989;-80
2021/08/14 12:15:50;;;;;;;;;;;;;;;30.81;34.54;99360.47;5058578;28;19970;-80
2021/08/14 12:18:17;;;;;;;;;;;;;;;31.80;33.25;99357.38;5075783;28;19939;-82
2021/08/14 12:20:43;;;;;;;;;;;;;;;32.73;31.87;99366.91;5073623;28;19916;-81
2021/08/14 12:23:18;;;;;;;;;;;;;;;31.59;30.72;99357.97;5072748;28;19998;-81
2021/08/14 12:26:03;;;;;;;;;;;;;;;34.27;30.59;99361.50;5075670;28;19952;-83
2021/08/14 12:28:51;;;;;;;;;;;;;;;30.25;32.78;99353.38;5076738;28;19974;-81
2021/08/14 12:31:18;;;;;;;;;;;;;;;32.19;34.66;99348.41;5079329;28;19925;-81
2021/08/14 12:33:46;;;;;;;;;;;;;;;33.95;29.53;99344.97;5074920;28;19960;-82
2021/08/14 12:36:11;;;;;;;;;;;;;;;30.81;32.30;99354.28;5076103;28;19920;-81
2021/08/14 12:38:46;;;;;;;;;;;;;;;34.72;32.27;99340.66;5061147;28;20299;-81
2021/08/14 12:41:15;;;;;;;;;;;;;;;31.67;30.71;99345.44;5056914;28;19916;-82
2021/08/14 12:43:44;;;;;;;;;;;;;;;32.73;32.57;99340.25;5078969;28;19916;-81